Time;durP1;ratioP1;P1;durP2;ratioP2;P2;SDS_P1;SDS_P2;PMS_P1;PMS_P2;Temp;Humidity;BMP_temperature;BMP_pressure;BME280_temperature;BME280_humidity;BME280_pressure;Samples;Min_cycle;Max_cycle;Signal;HPM_P1;HPM_P2
2023/11/17 00:00:51;;;;;;;21.73;11.55;;;;;;;6.87;73.80;100354.69;6151110;23;20442;-81
2023/11/17 00:03:17;;;;;;;20.45;11.93;;;;;;;6.73;73.10;100325.38;6125321;23;20006;-81
2023/11/17 00:05:43;;;;;;;19.70;12.40;;;;;;;6.87;72.93;100325.53;6125019;23;20013;-83
2023/11/17 00:08:08;;;;;;;19.73;12.48;;;;;;;6.55;74.52;100315.19;6125072;23;20013;-83
2023/11/17 00:10:34;;;;;;;20.50;12.75;;;;;;;6.28;76.39;100327.31;6127018;23;20005;-82
2023/11/17 00:13:00;;;;;;;20.52;11.57;;;;;;;5.69;78.10;100279.63;6127136;23;20112;-82
2023/11/17 00:15:25;;;;;;;21.33;12.18;;;;;;;5.80;78.48;100316.22;6126859;23;20027;-81
2023/11/17 00:17:51;;;;;;;19.77;12.40;;;;;;;6.20;75.84;100308.84;6126849;23;20352;-82
2023/11/17 00:20:19;;;;;;;21.20;13.00;;;;;;;6.53;76.39;100324.34;6126666;23;20005;-82
2023/11/17 00:22:47;;;;;;;18.83;12.25;;;;;;;6.60;75.17;100315.47;6126771;23;20045;-82
2023/11/17 00:25:14;;;;;;;21.83;11.98;;;;;;;6.21;76.47;100313.97;6153087;23;20080;-83
2023/11/17 00:27:40;;;;;;;23.95;12.02;;;;;;;6.27;75.99;100304.44;6126812;23;20030;-82
2023/11/17 00:30:07;;;;;;;20.60;11.77;;;;;;;6.21;76.88;100315.78;6126934;23;20009;-82
2023/11/17 00:32:33;;;;;;;27.20;17.05;;;;;;;6.14;77.12;100310.41;6152610;23;20060;-82
2023/11/17 00:34:59;;;;;;;28.00;18.00;;;;;;;6.26;76.86;100308.13;6127001;23;20009;-81
2023/11/17 00:37:26;;;;;;;34.63;21.17;;;;;;;6.15;76.27;100295.34;6127136;23;20028;-82
2023/11/17 00:39:52;;;;;;;31.88;18.05;;;;;;;6.03;76.25;100264.03;6127056;23;20093;-82
2023/11/17 00:42:18;;;;;;;36.13;20.75;;;;;;;6.32;74.98;100288.84;6152523;23;20595;-82
2023/11/17 00:44:43;;;;;;;28.60;15.82;;;;;;;6.44;75.56;100278.59;6126753;23;20096;-83
2023/11/17 00:47:09;;;;;;;30.50;16.42;;;;;;;6.41;75.56;100290.38;6127082;23;20024;-82
2023/11/17 00:49:34;;;;;;;30.70;17.13;;;;;;;6.33;75.41;100271.94;6126342;23;20014;-82
2023/11/17 00:52:01;;;;;;;33.97;16.83;;;;;;;6.51;75.33;100299.84;6152853;23;20333;-81
2023/11/17 00:54:27;;;;;;;32.25;17.98;;;;;;;6.23;75.49;100271.41;6126818;23;20009;-82
2023/11/17 00:56:54;;;;;;;36.55;17.30;;;;;;;6.23;76.77;100287.28;6127147;23;20009;-82
2023/11/17 00:59:20;;;;;;;32.60;17.42;;;;;;;6.30;75.56;100268.84;6126419;23;20023;-85
2023/11/17 01:01:45;;;;;;;36.55;17.95;;;;;;;6.40;74.88;100256.94;6126569;23;20456;-83
2023/11/17 01:04:12;;;;;;;31.45;16.40;;;;;;;6.76;74.18;100285.28;6126991;23;20013;-82
2023/11/17 01:06:38;;;;;;;33.75;16.58;;;;;;;6.22;75.88;100259.19;6152820;23;20001;-83
2023/11/17 01:09:04;;;;;;;30.33;16.73;;;;;;;6.06;77.13;100269.97;6126629;23;20006;-83
2023/11/17 01:11:30;;;;;;;30.17;16.17;;;;;;;6.36;75.79;100282.16;6126769;23;20092;-82
2023/11/17 01:13:55;;;;;;;29.55;15.85;;;;;;;6.35;75.08;100272.56;6126580;23;20368;-82
2023/11/17 01:16:21;;;;;;;32.33;15.85;;;;;;;6.09;76.59;100259.00;6126589;23;20005;-83
2023/11/17 01:18:46;;;;;;;28.55;16.13;;;;;;;6.18;77.30;100248.13;6126846;23;20012;-83
2023/11/17 01:21:12;;;;;;;31.60;14.00;;;;;;;6.02;77.45;100237.75;6151916;23;20440;-82
2023/11/17 01:23:38;;;;;;;26.60;14.52;;;;;;;6.53;75.49;100255.44;6126537;23;20009;-83
2023/11/17 01:26:04;;;;;;;27.42;14.60;;;;;;;6.74;75.16;100250.19;6126566;23;20344;-82
2023/11/17 01:28:30;;;;;;;26.20;14.02;;;;;;;6.55;75.82;100232.25;6126703;23;20037;-82
2023/11/17 01:30:55;;;;;;;28.92;15.30;;;;;;;6.81;74.92;100232.50;6126538;23;20351;-81
2023/11/17 01:33:20;;;;;;;26.85;15.10;;;;;;;6.53;75.53;100219.16;6126489;23;20089;-83
2023/11/17 01:35:46;;;;;;;24.08;14.18;;;;;;;6.59;75.46;100223.72;6126909;23;20093;-82
2023/11/17 01:38:11;;;;;;;24.70;14.43;;;;;;;6.52;75.63;100212.25;6126333;23;20317;-83
2023/11/17 01:40:37;;;;;;;32.50;16.45;;;;;;;6.66;74.91;100213.19;6126441;23;20403;-82
2023/11/17 01:43:11;;;;;;;35.58;18.17;;;;;;;6.62;74.79;100185.44;6126812;23;20554;-84
2023/11/17 01:45:36;;;;;;;29.35;16.05;;;;;;;6.92;73.07;100180.78;6152711;23;20001;-82
2023/11/17 01:48:02;;;;;;;23.23;14.15;;;;;;;6.72;73.98;100190.41;6126267;23;20017;-82
2023/11/17 01:50:28;;;;;;;23.67;14.57;;;;;;;6.68;75.47;100205.03;6120900;23;20029;-82
2023/11/17 01:52:55;;;;;;;26.23;14.27;;;;;;;6.69;74.58;100170.41;6121346;23;20020;-82
2023/11/17 01:55:21;;;;;;;38.05;17.75;;;;;;;6.73;75.03;100179.63;6121544;23;20009;-83
2023/11/17 01:57:47;;;;;;;22.65;12.75;;;;;;;6.64;74.89;100162.22;6121290;23;20014;-82
2023/11/17 02:00:15;;;;;;;22.20;12.07;;;;;;;6.95;73.69;100187.56;6120888;23;20013;-82
2023/11/17 02:02:47;;;;;;;23.10;13.63;;;;;;;7.22;72.74;100181.41;6120907;23;20152;-82
2023/11/17 02:05:14;;;;;;;22.92;13.60;;;;;;;6.97;74.57;100193.47;6121168;23;20010;-82
2023/11/17 02:08:04;;;;;;;97.65;58.05;;;;;;;7.08;73.21;100198.25;6120805;23;20033;-83
2023/11/17 02:10:36;;;;;;;27.88;16.15;;;;;;;7.20;74.58;100206.50;6121308;23;20451;-82
2023/11/17 02:13:11;;;;;;;25.77;13.90;;;;;;;6.94;72.85;100131.03;6121018;23;20006;-82
2023/11/17 02:15:39;;;;;;;27.73;17.10;;;;;;;7.15;73.51;100185.03;6122757;23;20009;-83
2023/11/17 02:18:10;;;;;;;29.30;18.50;;;;;;;6.69;75.74;100165.09;6121502;23;20014;-82
2023/11/17 02:20:37;;;;;;;24.25;14.90;;;;;;;6.91;74.59;100143.88;6122574;23;20558;-82
2023/11/17 02:23:10;;;;;;;24.15;13.77;;;;;;;6.85;75.05;100164.00;6121257;23;20042;-83
2023/11/17 02:26:00;;;;;;;27.15;15.32;;;;;;;6.67;77.42;100176.91;6121310;23;20010;-82
2023/11/17 02:29:04;;;;;;;25.73;14.32;;;;;;;7.05;75.37;100185.38;6121362;23;20018;-83
2023/11/17 02:31:32;;;;;;;26.73;15.18;;;;;;;6.89;75.90;100185.66;6122591;23;20006;-83
2023/11/17 02:34:08;;;;;;;28.30;14.52;;;;;;;6.60;77.24;100176.84;6119334;23;20041;-84
2023/11/17 02:36:34;;;;;;;25.83;13.68;;;;;;;6.79;77.00;100176.19;6119755;23;20360;-82
2023/11/17 02:39:14;;;;;;;26.23;13.05;;;;;;;6.90;76.01;100172.19;6121387;23;20006;-81
2023/11/17 02:41:48;;;;;;;23.75;13.43;;;;;;;7.02;75.68;100177.81;6121021;23;20014;-82
2023/11/17 02:44:15;;;;;;;22.48;13.98;;;;;;;7.30;74.64;100176.97;6121318;23;20008;-83
2023/11/17 02:46:45;;;;;;;32.72;20.52;;;;;;;7.07;75.39;100151.53;6121514;23;20006;-82
2023/11/17 02:49:22;;;;;;;29.38;15.20;;;;;;;6.67;76.66;100127.38;6121015;23;20018;-83
2023/11/17 02:51:51;;;;;;;28.17;15.60;;;;;;;7.08;76.23;100129.28;6122422;23;20341;-83
2023/11/17 02:54:23;;;;;;;28.77;13.43;;;;;;;7.33;75.18;100155.34;6124912;23;20011;-82
2023/11/17 02:56:50;;;;;;;23.52;13.32;;;;;;;7.20;73.99;100133.03;6144365;23;20005;-83
2023/11/17 02:59:18;;;;;;;24.20;13.00;;;;;;;6.35;76.98;100097.75;6145787;23;20006;-83
2023/11/17 03:01:45;;;;;;;21.75;13.55;;;;;;;6.15;78.76;100099.38;6145405;23;20029;-84
2023/11/17 03:04:15;;;;;;;23.63;12.65;;;;;;;6.08;78.09;100098.53;6144954;23;20057;-82
2023/11/17 03:06:45;;;;;;;18.02;11.10;;;;;;;6.01;79.32;100115.16;6144361;23;20005;-84
2023/11/17 03:09:13;;;;;;;21.10;11.90;;;;;;;6.08;78.55;100099.34;6143935;23;20032;-83
2023/11/17 03:11:41;;;;;;;21.42;11.65;;;;;;;5.74;80.10;100099.94;6144346;23;20146;-84
2023/11/17 03:14:08;;;;;;;28.17;12.23;;;;;;;5.61;79.03;100061.75;6143426;23;20060;-82
2023/11/17 03:16:35;;;;;;;17.67;10.87;;;;;;;5.77;77.86;100083.72;6127159;23;20006;-82
2023/11/17 03:19:00;;;;;;;19.75;11.18;;;;;;;5.70;78.58;100080.16;6124999;23;20230;-83
2023/11/17 03:21:27;;;;;;;21.95;11.02;;;;;;;5.34;79.16;100038.66;6125236;23;20014;-82
2023/11/17 03:23:53;;;;;;;22.48;11.90;;;;;;;5.96;78.50;100091.06;6124646;23;20017;-82
2023/11/17 03:26:18;;;;;;;23.48;11.85;;;;;;;6.10;77.58;100075.31;6124976;23;20010;-84
2023/11/17 03:28:44;;;;;;;19.75;10.98;;;;;;;5.51;80.96;100071.81;6124748;23;20021;-82
2023/11/17 03:31:13;;;;;;;19.08;10.60;;;;;;;5.60;81.41;100049.53;6124874;23;20014;-82
2023/11/17 03:33:43;;;;;;;17.73;10.48;;;;;;;6.10;80.42;100104.44;6123854;23;20014;-82
2023/11/17 03:36:11;;;;;;;18.38;10.82;;;;;;;6.03;77.75;100084.03;6122969;23;20018;-82
2023/11/17 03:38:36;;;;;;;16.48;10.38;;;;;;;5.82;79.39;100068.09;6122959;23;20013;-82
2023/11/17 03:41:02;;;;;;;15.43;9.13;;;;;;;6.20;76.13;100073.19;6122340;23;20010;-82
2023/11/17 03:43:27;;;;;;;14.25;7.97;;;;;;;6.27;76.28;100060.78;6121278;23;20360;-83
2023/11/17 03:45:53;;;;;;;12.70;6.95;;;;;;;6.44;77.14;100078.06;6121223;23;20014;-82
2023/11/17 03:48:18;;;;;;;14.25;7.90;;;;;;;6.59;76.06;100063.91;6121941;23;20041;-82
2023/11/17 03:50:44;;;;;;;13.80;8.35;;;;;;;6.57;77.20;100068.59;6120886;23;20060;-83
2023/11/17 03:53:09;;;;;;;12.73;8.23;;;;;;;6.41;77.33;100051.94;6122142;23;20006;-84
2023/11/17 03:55:34;;;;;;;13.82;7.28;;;;;;;6.41;77.83;100062.53;6121418;23;20001;-82
2023/11/17 03:58:00;;;;;;;13.57;7.72;;;;;;;6.55;77.31;100070.63;6122400;23;20161;-82
2023/11/17 04:00:27;;;;;;;15.43;8.20;;;;;;;6.26;77.66;100032.69;6120822;23;21106;-82
2023/11/17 04:02:52;;;;;;;13.07;7.63;;;;;;;5.97;79.92;100045.06;6120749;23;20010;-81
2023/11/17 04:05:21;;;;;;;11.77;7.07;;;;;;;6.03;80.00;100033.72;6122286;23;20010;-81
2023/11/17 04:07:48;;;;;;;14.60;8.60;;;;;;;6.50;78.13;100043.84;6121958;23;20009;-82
2023/11/17 04:10:18;;;;;;;19.27;10.32;;;;;;;6.66;77.55;100026.84;6122274;23;20002;-82
2023/11/17 04:12:45;;;;;;;20.27;12.38;;;;;;;6.55;77.05;100005.19;6120323;23;20010;-82
2023/11/17 04:15:10;;;;;;;27.98;19.25;;;;;;;6.72;77.06;100013.66;6121515;23;20060;-82
2023/11/17 04:17:36;;;;;;;26.95;18.15;;;;;;;6.68;76.98;100004.47;6120276;23;20093;-83
2023/11/17 04:20:01;;;;;;;24.02;14.10;;;;;;;6.75;77.69;100026.50;6120449;23;20680;-83
2023/11/17 04:22:27;;;;;;;16.67;10.93;;;;;;;6.71;77.59;100019.16;6120459;23;20406;-82
2023/11/17 04:24:53;;;;;;;20.88;12.40;;;;;;;6.77;77.04;100035.09;6120561;23;20006;-83
2023/11/17 04:27:19;;;;;;;25.08;16.27;;;;;;;6.57;76.70;99987.25;6121933;23;20081;-83
2023/11/17 04:29:44;;;;;;;25.08;18.63;;;;;;;6.70;77.19;100034.25;6119679;23;20030;-81
2023/11/17 04:32:10;;;;;;;21.08;14.40;;;;;;;6.73;76.82;100030.38;6120463;23;20008;-82
2023/11/17 04:34:36;;;;;;;20.00;12.95;;;;;;;6.62;77.19;100008.72;6121762;23;20006;-82
2023/11/17 04:37:05;;;;;;;18.65;14.23;;;;;;;6.64;77.69;100029.72;6121707;23;20483;-82
2023/11/17 04:39:31;;;;;;;21.65;14.65;;;;;;;6.61;76.88;100025.59;6120000;23;20334;-82
2023/11/17 04:41:56;;;;;;;20.88;13.63;;;;;;;6.21;79.04;100004.16;6119561;23;20024;-82
2023/11/17 04:44:22;;;;;;;21.27;12.27;;;;;;;6.27;78.96;100012.31;6120063;23;20077;-81
2023/11/17 04:46:48;;;;;;;24.70;13.40;;;;;;;6.47;77.90;100002.69;6120212;23;20501;-82
2023/11/17 04:49:14;;;;;;;22.20;14.02;;;;;;;6.40;78.06;99992.06;6119704;23;20022;-83
2023/11/17 04:51:46;;;;;;;21.02;13.00;;;;;;;6.03;81.02;100006.44;6119936;23;20428;-82
2023/11/17 04:54:15;;;;;;;24.48;14.10;;;;;;;5.91;81.68;99998.16;6120097;23;20016;-82
2023/11/17 04:56:41;;;;;;;24.75;13.15;;;;;;;5.64;84.35;100016.41;6121214;23;20440;-80
2023/11/17 04:59:10;;;;;;;21.95;13.48;;;;;;;5.93;82.28;100001.44;6123380;23;20013;-83
2023/11/17 05:01:36;;;;;;;22.40;11.95;;;;;;;6.40;79.24;100023.03;6121631;23;20452;-82
2023/11/17 05:04:02;;;;;;;18.33;11.65;;;;;;;6.35;79.47;100023.56;6123292;23;20002;-82
2023/11/17 05:06:27;;;;;;;19.00;12.15;;;;;;;6.57;77.73;100036.78;6121398;23;20407;-83
2023/11/17 05:08:53;;;;;;;19.63;11.55;;;;;;;5.68;81.36;99995.69;6121797;23;20016;-82
2023/11/17 05:11:21;;;;;;;18.58;11.73;;;;;;;5.87;81.23;99996.88;6121515;23;20547;-82
2023/11/17 05:13:47;;;;;;;20.42;11.10;;;;;;;6.10;79.63;100014.44;6121566;23;20006;-82
2023/11/17 05:16:14;;;;;;;15.32;9.60;;;;;;;5.70;80.84;100003.44;6121637;23;20010;-81
2023/11/17 05:18:39;;;;;;;13.68;7.88;;;;;;;5.52;82.08;100020.56;6121482;23;20002;-82
2023/11/17 05:21:08;;;;;;;18.92;9.68;;;;;;;5.79;81.56;100026.94;6121727;23;20013;-81
2023/11/17 05:23:34;;;;;;;18.13;10.05;;;;;;;5.83;80.41;100003.56;6121083;23;20152;-81
2023/11/17 05:26:01;;;;;;;14.63;9.15;;;;;;;5.74;80.92;99996.75;6123068;23;20002;-82
2023/11/17 05:28:27;;;;;;;25.00;11.30;;;;;;;6.03;80.53;100027.63;6121086;23;20017;-82
2023/11/17 05:30:55;;;;;;;15.27;9.73;;;;;;;6.07;81.00;100006.84;6121396;23;20014;-82
2023/11/17 05:33:21;;;;;;;17.58;9.75;;;;;;;6.02;81.28;100005.59;6121341;23;20002;-83
2023/11/17 05:35:47;;;;;;;16.77;10.15;;;;;;;6.03;80.17;99999.31;6121536;23;20494;-82
2023/11/17 05:38:13;;;;;;;20.63;12.73;;;;;;;6.17;80.34;100002.88;6121848;23;20006;-82
2023/11/17 05:40:40;;;;;;;15.68;7.88;;;;;;;6.09;79.84;99994.25;6121528;23;20101;-82
2023/11/17 05:43:06;;;;;;;16.90;8.63;;;;;;;6.13;79.34;99991.03;6121178;23;20009;-83
2023/11/17 05:45:33;;;;;;;14.65;9.45;;;;;;;6.21;79.82;100014.72;6122779;23;20006;-85
2023/11/17 05:47:58;;;;;;;16.15;8.57;;;;;;;5.97;80.87;99997.41;6123378;23;20017;-82
2023/11/17 05:50:24;;;;;;;12.95;8.25;;;;;;;6.17;79.90;100016.13;6121181;23;20018;-82
2023/11/17 05:52:49;;;;;;;14.27;7.90;;;;;;;6.23;80.60;100022.47;6120868;23;20014;-83
2023/11/17 05:55:17;;;;;;;17.77;7.63;;;;;;;6.21;81.14;100032.44;6121764;23;20014;-82
2023/11/17 05:57:44;;;;;;;13.00;7.45;;;;;;;6.34;79.14;100013.19;6121466;23;20038;-82
2023/11/17 06:00:13;;;;;;;12.02;7.03;;;;;;;6.16;80.12;100005.72;6121396;23;20025;-82
2023/11/17 06:02:40;;;;;;;14.15;8.07;;;;;;;6.48;79.00;100019.38;6121275;23;20022;-82
2023/11/17 06:05:08;;;;;;;13.55;7.30;;;;;;;6.42;79.38;100007.75;6122840;23;20413;-84
2023/11/17 06:07:34;;;;;;;12.60;7.22;;;;;;;6.12;81.43;99993.88;6123136;23;20099;-81
2023/11/17 06:10:00;;;;;;;14.93;8.15;;;;;;;6.10;82.00;100017.06;6122873;23;20061;-82
2023/11/17 06:12:27;;;;;;;12.73;7.80;;;;;;;6.29;81.32;100005.81;6122671;23;20033;-83
2023/11/17 06:14:52;;;;;;;14.20;8.07;;;;;;;6.56;80.07;100008.66;6120827;23;20452;-83
2023/11/17 06:17:19;;;;;;;17.23;8.95;;;;;;;6.71;78.65;100014.66;6122450;23;20006;-84
2023/11/17 06:19:44;;;;;;;14.63;8.48;;;;;;;6.87;78.02;100018.03;6121212;23;20106;-83
2023/11/17 06:22:11;;;;;;;10.45;7.25;;;;;;;6.65;78.22;100020.75;6121061;23;20352;-82
2023/11/17 06:24:37;;;;;;;13.40;7.95;;;;;;;6.74;78.00;100001.03;6122110;23;20006;-82
2023/11/17 06:27:02;;;;;;;13.02;7.35;;;;;;;6.32;79.93;99989.56;6121797;23;20013;-83
2023/11/17 06:29:28;;;;;;;12.63;8.25;;;;;;;6.56;80.04;100000.69;6120761;23;20037;-82
2023/11/17 06:31:53;;;;;;;13.77;8.00;;;;;;;6.46;80.24;99945.44;6121252;23;20040;-83
2023/11/17 06:34:19;;;;;;;13.32;8.18;;;;;;;6.68;80.20;99985.91;6120475;23;20061;-82
2023/11/17 06:36:45;;;;;;;15.02;8.52;;;;;;;7.19;78.07;99980.25;6121252;23;20013;-82
2023/11/17 06:39:15;;;;;;;12.63;7.15;;;;;;;7.38;77.02;99985.81;6122378;23;20006;-82
2023/11/17 06:41:47;;;;;;;12.80;7.07;;;;;;;7.27;77.28;99983.72;6120919;23;20344;-83
2023/11/17 06:44:17;;;;;;;12.35;7.38;;;;;;;7.34;76.22;99972.13;6120240;23;20013;-85
2023/11/17 06:46:45;;;;;;;11.45;6.88;;;;;;;7.85;76.63;99997.34;6121295;23;20021;-86
2023/11/17 06:49:15;;;;;;;10.55;6.72;;;;;;;7.83;75.99;99970.97;6126064;23;20017;-85
2023/11/17 06:51:41;;;;;;;14.65;7.97;;;;;;;7.80;74.87;99970.56;6126255;23;20017;-84
2023/11/17 06:54:10;;;;;;;11.45;6.95;;;;;;;7.99;73.86;99953.03;6125863;23;20020;-85
2023/11/17 06:56:42;;;;;;;11.77;6.93;;;;;;;8.31;74.54;99985.06;6125841;23;20043;-85
2023/11/17 06:59:11;;;;;;;14.75;6.47;;;;;;;7.82;76.18;99968.50;6125828;23;20017;-85
2023/11/17 07:01:38;;;;;;;11.73;6.13;;;;;;;7.81;77.56;99962.41;6126064;23;20005;-84
2023/11/17 07:04:07;;;;;;;13.38;5.88;;;;;;;7.82;78.00;99955.25;6125909;23;20005;-85
2023/11/17 07:06:34;;;;;;;11.10;5.95;;;;;;;7.70;78.29;99927.66;6125723;23;20013;-85
2023/11/17 07:09:04;;;;;;;16.58;8.90;;;;;;;7.86;79.08;99919.31;6126079;23;20012;-84
2023/11/17 07:11:32;;;;;;;13.43;8.00;;;;;;;7.80;79.44;99901.53;6126015;23;20380;-84
2023/11/17 07:14:01;;;;;;;9.63;5.20;;;;;;;8.23;77.31;99930.31;6151788;23;20021;-85
2023/11/17 07:16:30;;;;;;;10.55;6.05;;;;;;;8.87;76.00;99958.00;6126304;23;20461;-84
2023/11/17 07:18:55;;;;;;;9.13;6.35;;;;;;;8.76;74.72;99959.44;6125907;23;20009;-85
2023/11/17 07:21:22;;;;;;;10.15;7.32;;;;;;;9.05;73.64;99958.13;6126374;23;20097;-86
2023/11/17 07:23:50;;;;;;;11.20;7.15;;;;;;;9.32;72.75;99986.47;6126014;23;20076;-85
2023/11/17 07:26:18;;;;;;;9.80;6.10;;;;;;;9.70;70.32;99961.66;6125761;23;20013;-83
2023/11/17 07:28:50;;;;;;;8.98;5.82;;;;;;;9.88;70.04;99976.91;6125772;23;20244;-85
2023/11/17 07:31:18;;;;;;;9.43;5.57;;;;;;;9.83;69.28;99949.06;6125948;23;20005;-85
2023/11/17 07:33:44;;;;;;;8.35;5.60;;;;;;;10.13;68.48;99955.56;6125358;23;20009;-86
2023/11/17 07:36:15;;;;;;;9.48;4.93;;;;;;;10.08;68.72;99966.09;6125793;23;20088;-84
2023/11/17 07:38:42;;;;;;;8.82;5.80;;;;;;;10.10;69.54;99964.03;6125897;23;20008;-84
2023/11/17 07:41:07;;;;;;;7.70;5.00;;;;;;;10.49;66.60;99940.72;6125716;23;20005;-85
2023/11/17 07:43:33;;;;;;;9.38;4.90;;;;;;;10.78;65.94;99961.31;6125978;23;20083;-85
2023/11/17 07:45:58;;;;;;;9.68;5.40;;;;;;;10.77;65.69;99950.88;6151531;23;20005;-84
2023/11/17 07:48:24;;;;;;;10.13;6.35;;;;;;;11.06;63.85;99938.63;6125098;23;20014;-85
2023/11/17 07:50:52;;;;;;;14.35;6.40;;;;;;;11.22;64.22;99927.31;6124816;23;20124;-83
2023/11/17 07:53:18;;;;;;;12.93;7.68;;;;;;;11.30;64.74;99936.03;6123369;23;20013;-83
2023/11/17 07:55:45;;;;;;;15.27;8.23;;;;;;;11.56;63.20;99932.97;6123277;23;20016;-83
2023/11/17 07:58:11;;;;;;;11.68;7.65;;;;;;;11.71;61.54;99915.69;6123327;23;20009;-83
2023/11/17 08:00:37;;;;;;;14.70;7.97;;;;;;;11.58;62.37;99909.53;6124216;23;20024;-85
2023/11/17 08:03:03;;;;;;;13.98;7.70;;;;;;;11.61;62.34;99886.91;6123376;23;20093;-83
2023/11/17 08:05:28;;;;;;;21.08;11.13;;;;;;;11.76;61.55;99905.16;6123748;23;20045;-84
2023/11/17 08:07:54;;;;;;;12.40;7.75;;;;;;;12.11;60.78;99921.22;6124952;23;20016;-87
2023/11/17 08:10:20;;;;;;;9.48;6.50;;;;;;;12.24;59.34;99947.75;6124555;23;20010;-88
2023/11/17 08:12:46;;;;;;;15.05;7.90;;;;;;;12.16;59.35;99944.63;6125591;23;20325;-86
2023/11/17 08:15:12;;;;;;;10.68;6.35;;;;;;;11.96;59.99;99929.72;6124881;23;20013;-85
2023/11/17 08:17:38;;;;;;;11.45;6.30;;;;;;;12.00;60.02;99920.19;6125707;23;20020;-86
2023/11/17 08:20:14;;;;;;;11.68;6.60;;;;;;;12.41;59.05;99909.59;6151078;23;20439;-87
2023/11/17 08:22:40;;;;;;;13.88;6.18;;;;;;;12.45;59.86;99906.22;6125133;23;20525;-85
2023/11/17 08:25:06;;;;;;;11.35;6.15;;;;;;;12.69;58.17;99913.38;6124502;23;20355;-85
2023/11/17 08:27:32;;;;;;;10.52;6.57;;;;;;;12.08;59.40;99884.28;6125106;23;20347;-85
2023/11/17 08:29:58;;;;;;;9.65;6.65;;;;;;;12.15;59.80;99900.22;6126170;23;20009;-86
2023/11/17 08:32:23;;;;;;;8.80;5.57;;;;;;;11.97;61.01;99888.59;6127587;23;20009;-86
2023/11/17 08:34:49;;;;;;;11.55;6.70;;;;;;;11.91;60.24;99878.84;6127346;23;20009;-86
2023/11/17 08:37:14;;;;;;;13.93;8.20;;;;;;;11.68;60.86;99890.28;6127171;23;20444;-85
2023/11/17 08:39:41;;;;;;;11.35;6.20;;;;;;;11.89;60.32;99886.28;6127494;23;20088;-85
2023/11/17 08:42:08;;;;;;;15.93;12.57;;;;;;;11.76;60.51;99862.41;6126961;23;20014;-85
2023/11/17 08:44:33;;;;;;;15.15;6.75;;;;;;;12.01;60.43;99884.41;6126887;23;20068;-86
2023/11/17 08:46:59;;;;;;;11.35;6.20;;;;;;;11.77;61.42;99866.69;6127198;23;20014;-87
2023/11/17 08:49:26;;;;;;;10.50;6.30;;;;;;;11.74;61.93;99873.31;6127609;23;20020;-84
2023/11/17 08:51:51;;;;;;;12.55;6.35;;;;;;;11.79;62.38;99881.47;6127625;23;20068;-86
2023/11/17 08:54:17;;;;;;;13.98;8.88;;;;;;;11.64;62.33;99855.19;6127156;23;20351;-85
2023/11/17 08:56:47;;;;;;;14.60;8.38;;;;;;;11.38;62.96;99845.78;6127306;23;20036;-85
2023/11/17 08:59:13;;;;;;;10.43;6.18;;;;;;;11.70;61.48;99874.00;6127522;23;20015;-85
2023/11/17 09:01:39;;;;;;;12.48;6.20;;;;;;;11.61;62.90;99882.38;6127510;23;20016;-86
2023/11/17 09:04:04;;;;;;;11.85;6.53;;;;;;;11.43;63.95;99861.09;6127245;23;20412;-84
2023/11/17 09:06:30;;;;;;;11.50;7.80;;;;;;;11.42;62.75;99833.59;6127037;23;20036;-84
2023/11/17 09:08:55;;;;;;;12.90;9.20;;;;;;;11.33;63.36;99818.13;6127594;23;20005;-84
2023/11/17 09:11:21;;;;;;;18.70;11.65;;;;;;;11.59;62.44;99836.38;6127696;23;20005;-83
2023/11/17 09:13:47;;;;;;;16.02;7.07;;;;;;;11.73;61.73;99849.50;6127324;23;20005;-85
2023/11/17 09:16:12;;;;;;;11.32;6.85;;;;;;;11.76;62.71;99862.41;6127239;23;20088;-84
2023/11/17 09:18:38;;;;;;;11.40;6.10;;;;;;;11.61;62.49;99834.28;6127373;23;20016;-83
2023/11/17 09:21:07;;;;;;;9.80;5.72;;;;;;;11.71;61.49;99851.59;6127046;23;20467;-84
2023/11/17 09:23:36;;;;;;;10.88;6.65;;;;;;;11.52;62.19;99854.34;6127351;23;20525;-84
2023/11/17 09:26:03;;;;;;;12.35;5.82;;;;;;;11.30;62.95;99819.41;6126935;23;20585;-85
2023/11/17 09:28:29;;;;;;;12.52;7.50;;;;;;;11.35;62.49;99826.72;6127282;23;20020;-84
2023/11/17 09:30:56;;;;;;;11.35;7.18;;;;;;;11.38;62.06;99796.88;6126915;23;20092;-84
2023/11/17 09:33:22;;;;;;;13.23;7.88;;;;;;;11.70;61.94;99817.91;6127125;23;20017;-85
2023/11/17 09:35:48;;;;;;;12.77;7.97;;;;;;;11.77;61.60;99814.09;6126986;23;20014;-84
2023/11/17 09:38:16;;;;;;;13.52;8.43;;;;;;;11.75;61.79;99789.47;6127038;23;20081;-84
2023/11/17 09:40:41;;;;;;;13.68;7.78;;;;;;;11.74;61.41;99797.72;6127206;23;20009;-84
2023/11/17 09:43:21;;;;;;;14.07;8.40;;;;;;;11.84;60.83;99776.56;6126656;23;20083;-85
2023/11/17 09:45:49;;;;;;;13.10;7.47;;;;;;;11.90;60.67;99786.34;6126863;23;20005;-84
2023/11/17 09:48:16;;;;;;;10.55;6.68;;;;;;;12.12;59.80;99796.44;6126587;23;20006;-85
2023/11/17 09:50:43;;;;;;;13.40;7.60;;;;;;;11.83;60.91;99765.06;6126432;23;20048;-85
2023/11/17 09:53:12;;;;;;;11.70;7.75;;;;;;;11.91;60.47;99755.91;6125908;23;20436;-85
2023/11/17 09:55:42;;;;;;;10.32;6.78;;;;;;;11.89;60.58;99766.03;6126135;23;20029;-85
2023/11/17 09:58:09;;;;;;;11.23;7.10;;;;;;;12.12;59.09;99725.06;6126002;23;20043;-84
2023/11/17 10:00:37;;;;;;;;;;;;;;;12.91;57.15;99761.00;6127360;23;20024;-84
2023/11/17 10:03:03;;;;;;;10.15;6.38;;;;;;;12.66;57.11;99740.78;6125905;23;19908;-86
2023/11/17 10:05:33;;;;;;;11.88;6.85;;;;;;;13.22;55.74;99749.75;6126656;23;20454;-83
2023/11/17 10:08:05;;;;;;;10.85;6.72;;;;;;;13.70;55.85;99760.13;6126511;23;20009;-83
2023/11/17 10:10:35;;;;;;;9.65;6.05;;;;;;;13.45;54.79;99750.66;6126867;23;20013;-84
2023/11/17 10:13:02;;;;;;;9.88;6.00;;;;;;;13.11;56.85;99736.44;6126277;23;20010;-84
2023/11/17 10:15:31;;;;;;;9.60;6.40;;;;;;;12.81;56.64;99762.47;6127035;23;20140;-85
2023/11/17 10:18:05;;;;;;;12.10;6.18;;;;;;;12.88;56.81;99735.53;6126281;23;20005;-84
2023/11/17 10:20:34;;;;;;;9.50;5.90;;;;;;;13.15;57.18;99743.72;6126266;23;20006;-84
2023/11/17 10:23:00;;;;;;;11.30;6.50;;;;;;;13.06;56.65;99723.78;6126402;23;20096;-84
2023/11/17 10:25:27;;;;;;;30.67;27.83;;;;;;;12.84;56.99;99700.41;6126563;23;20108;-85
2023/11/17 10:27:53;;;;;;;17.35;10.80;;;;;;;13.14;57.43;99715.34;6126753;23;20340;-85
2023/11/17 10:30:19;;;;;;;13.82;8.93;;;;;;;13.02;58.00;99712.75;6126874;23;20036;-85
2023/11/17 10:33:13;;;;;;;12.77;6.32;;;;;;;13.10;57.72;99710.72;6126375;23;20610;-85
2023/11/17 10:35:43;;;;;;;13.82;7.55;;;;;;;13.05;57.56;99673.97;6126425;23;20014;-85
2023/11/17 10:38:17;;;;;;;9.90;6.72;;;;;;;13.34;55.86;99701.50;6125949;23;20431;-84
2023/11/17 10:40:42;;;;;;;13.60;7.68;;;;;;;13.11;57.10;99667.63;6126396;23;20009;-85
2023/11/17 10:43:11;;;;;;;12.60;8.38;;;;;;;13.13;55.95;99686.94;6126202;23;20002;-86
2023/11/17 10:45:47;;;;;;;15.38;8.80;;;;;;;12.85;57.75;99685.16;6126128;23;20521;-84
2023/11/17 10:48:13;;;;;;;12.90;8.48;;;;;;;12.84;57.56;99692.38;6126133;23;20044;-84
2023/11/17 10:50:42;;;;;;;12.23;7.75;;;;;;;12.91;57.01;99678.84;6126031;23;20017;-84
2023/11/17 10:53:14;;;;;;;12.00;7.38;;;;;;;13.01;56.66;99662.13;6125507;23;20014;-85
2023/11/17 10:55:42;;;;;;;11.57;9.85;;;;;;;12.72;58.54;99654.19;6125726;23;20002;-85
2023/11/17 10:58:08;;;;;;;13.07;7.03;;;;;;;12.96;57.81;99665.56;6126299;23;20450;-85
2023/11/17 11:00:38;;;;;;;14.07;6.88;;;;;;;12.99;58.25;99661.56;6126213;23;20552;-84
2023/11/17 11:03:07;;;;;;;10.73;6.18;;;;;;;12.57;59.57;99622.66;6125762;23;20073;-85
2023/11/17 11:05:32;;;;;;;9.98;6.82;;;;;;;12.56;59.79;99623.69;6126051;23;20045;-85
2023/11/17 11:08:00;;;;;;;11.07;7.05;;;;;;;12.81;59.00;99634.03;6125243;23;20006;-85
2023/11/17 11:10:26;;;;;;;;;;;;;;;12.96;59.01;99632.63;6126524;23;20473;-84
2023/11/17 11:12:53;;;;;;;11.82;7.03;;;;;;;12.89;58.74;99621.25;6125732;23;19905;-85
2023/11/17 11:15:20;;;;;;;10.88;7.18;;;;;;;13.01;57.94;99597.88;6151876;23;20009;-88
2023/11/17 11:17:53;;;;;;;14.68;7.25;;;;;;;13.34;56.53;99623.00;6125555;23;20037;-85
2023/11/17 11:20:21;;;;;;;12.27;7.65;;;;;;;13.03;57.71;99620.66;6126010;23;20013;-87
2023/11/17 11:22:48;;;;;;;10.70;7.00;;;;;;;13.00;58.65;99623.84;6126483;23;20519;-86
2023/11/17 11:25:16;;;;;;;11.13;8.02;;;;;;;12.90;58.19;99591.59;6125716;23;20009;-87